createdAt,value
2023-01-18T00:02:26.645Z,99304.72
2023-01-18T00:05:12.112Z,99304.75
2023-01-18T00:07:57.450Z,99297.06
2023-01-18T00:10:43.773Z,99309.88
2023-01-18T00:13:28.969Z,99313.31
2023-01-18T00:16:20.059Z,99306.47
2023-01-18T00:19:06.723Z,99307.41
2023-01-18T00:21:55.847Z,99314.31
2023-01-18T00:24:40.997Z,99310.00
2023-01-18T00:27:26.428Z,99307.44
2023-01-18T00:30:12.664Z,99306.47
2023-01-18T00:32:59.489Z,99298.69
2023-01-18T00:36:04.020Z,99312.25
2023-01-18T00:38:54.193Z,99309.56
2023-01-18T00:41:59.842Z,99318.97
2023-01-18T00:44:45.466Z,99320.63
2023-01-18T00:47:30.737Z,99315.59
2023-01-18T00:50:17.228Z,99316.44
2023-01-18T00:53:02.846Z,99330.97
2023-01-18T00:55:48.196Z,99325.94
2023-01-18T00:58:33.767Z,99325.84
2023-01-18T01:01:19.317Z,99330.03
2023-01-18T01:04:23.462Z,99328.31
2023-01-18T01:07:09.140Z,99325.72
2023-01-18T01:09:54.968Z,99328.19
2023-01-18T01:12:59.343Z,99329.91
2023-01-18T01:16:03.531Z,99324.66
2023-01-18T01:19:07.782Z,99334.91
2023-01-18T01:22:11.986Z,99343.53
2023-01-18T01:25:16.158Z,99363.06
2023-01-18T01:28:01.865Z,99360.47
2023-01-18T01:30:47.468Z,99359.63
2023-01-18T01:33:34.463Z,99360.34
2023-01-18T01:36:25.951Z,99379.09
2023-01-18T01:39:11.457Z,99374.09
2023-01-18T01:41:56.952Z,99368.16
2023-01-18T01:44:50.244Z,99375.84
2023-01-18T01:47:43.296Z,99381.88
2023-01-18T01:50:34.997Z,99387.00
2023-01-18T01:53:20.650Z,99389.69
2023-01-18T01:56:07.650Z,99376.94
2023-01-18T01:58:56.758Z,99381.25
2023-01-18T02:01:45.880Z,99400.16
2023-01-18T02:04:32.446Z,99406.16
2023-01-18T02:07:18.035Z,99412.09
2023-01-18T02:10:04.863Z,99416.41
2023-01-18T02:12:53.728Z,99416.38
2023-01-18T02:15:48.936Z,99423.16
2023-01-18T02:18:40.328Z,99429.16
2023-01-18T02:21:40.669Z,99428.31
2023-01-18T02:25:04.967Z,99421.34
2023-01-18T02:28:09.265Z,99440.91
2023-01-18T02:31:17.184Z,99445.13
2023-01-18T02:34:34.689Z,99457.97
2023-01-18T02:37:33.971Z,99469.97
2023-01-18T02:40:46.593Z,99471.66
2023-01-18T02:43:52.270Z,99457.81
2023-01-18T02:46:39.279Z,99451.66
2023-01-18T02:49:29.912Z,99443.91
2023-01-18T02:52:41.908Z,99459.25
2023-01-18T02:55:41.651Z,99455.00
2023-01-18T02:58:31.112Z,99464.34
2023-01-18T03:01:44.211Z,99483.22
2023-01-18T03:04:39.128Z,99475.41
2023-01-18T03:07:28.795Z,99464.31
2023-01-18T03:10:15.453Z,99462.47
2023-01-18T03:13:16.833Z,99475.19
2023-01-18T03:16:21.022Z,99468.28
2023-01-18T03:19:34.312Z,99468.31
2023-01-18T03:22:40.045Z,99469.06
2023-01-18T03:25:30.465Z,99480.25
2023-01-18T03:28:45.701Z,99464.84
2023-01-18T03:32:13.263Z,99483.69
2023-01-18T03:35:11.886Z,99481.13
2023-01-18T03:37:59.216Z,99500.81
2023-01-18T03:40:44.595Z,99502.75
2023-01-18T03:43:36.562Z,99511.28
2023-01-18T03:46:26.294Z,99513.06
2023-01-18T03:49:12.520Z,99501.88
2023-01-18T03:52:37.704Z,99502.63
2023-01-18T03:55:39.676Z,99509.38
2023-01-18T03:58:35.259Z,99514.41
2023-01-18T04:01:20.743Z,99517.72
2023-01-18T04:04:06.425Z,99535.59
2023-01-18T04:06:51.927Z,99530.41
2023-01-18T04:09:37.313Z,99536.44
2023-01-18T04:12:22.602Z,99540.72
2023-01-18T04:15:08.556Z,99549.25
2023-01-18T04:17:55.952Z,99539.00
2023-01-18T04:20:41.527Z,99548.38
2023-01-18T04:23:27.072Z,99539.84
2023-01-18T04:26:15.392Z,99541.63
2023-01-18T04:29:02.088Z,99550.25
2023-01-18T04:31:47.359Z,99544.28
2023-01-18T04:34:33.832Z,99540.94
2023-01-18T04:37:19.141Z,99554.56
2023-01-18T04:40:06.164Z,99558.88
2023-01-18T04:42:53.475Z,99560.59
2023-01-18T04:45:38.823Z,99565.81
2023-01-18T04:48:24.846Z,99565.84
2023-01-18T04:51:14.521Z,99570.16
2023-01-18T04:54:00.136Z,99560.88
2023-01-18T04:56:45.746Z,99567.69
2023-01-18T04:59:31.415Z,99560.78
2023-01-18T05:02:16.681Z,99561.63
2023-01-18T05:05:02.137Z,99574.47
2023-01-18T05:07:47.491Z,99574.34
2023-01-18T05:10:33.803Z,99574.25
2023-01-18T05:13:19.143Z,99582.69
2023-01-18T05:16:06.302Z,99585.97
2023-01-18T05:18:51.902Z,99590.09
2023-01-18T05:21:37.382Z,99597.75
2023-01-18T05:24:22.615Z,99594.34
2023-01-18T05:27:08.006Z,99601.13
2023-01-18T05:29:53.516Z,99605.47
2023-01-18T05:32:39.179Z,99597.09
2023-01-18T05:35:24.557Z,99616.00
2023-01-18T05:38:09.923Z,99612.69
2023-01-18T05:40:55.463Z,99617.94
2023-01-18T05:43:41.361Z,99622.34
2023-01-18T05:46:26.851Z,99630.88
2023-01-18T05:49:12.336Z,99611.31
2023-01-18T05:51:57.690Z,99618.09
2023-01-18T05:54:43.170Z,99612.09
2023-01-18T05:57:28.496Z,99615.47
2023-01-18T06:00:14.112Z,99622.34
2023-01-18T06:03:01.234Z,99626.53
2023-01-18T06:05:48.030Z,99635.97
2023-01-18T06:08:34.026Z,99629.06
2023-01-18T06:11:19.675Z,99640.88
2023-01-18T06:14:04.913Z,99636.56
2023-01-18T06:16:50.378Z,99639.09
2023-01-18T06:19:36.528Z,99642.66
2023-01-18T06:22:22.402Z,99647.78
2023-01-18T06:25:10.020Z,99659.66
2023-01-18T06:27:55.243Z,99659.53
2023-01-18T06:30:42.881Z,99673.13
2023-01-18T06:33:28.518Z,99677.34
2023-01-18T06:36:13.831Z,99685.88
2023-01-18T06:38:59.046Z,99694.47
2023-01-18T06:41:44.483Z,99703.03
2023-01-18T06:44:29.911Z,99707.16
2023-01-18T06:47:20.023Z,99709.69
2023-01-18T06:50:05.777Z,99721.63
2023-01-18T06:52:51.863Z,99722.44
2023-01-18T06:55:37.281Z,99732.63
2023-01-18T06:58:24.261Z,99733.53
2023-01-18T07:01:09.622Z,99732.81
2023-01-18T07:03:55.164Z,99750.22
2023-01-18T07:06:40.733Z,99752.72
2023-01-18T07:09:26.027Z,99768.88
2023-01-18T07:12:11.540Z,99767.19
2023-01-18T07:14:57.642Z,99770.59
2023-01-18T07:17:45.111Z,99759.50
2023-01-18T07:20:30.957Z,99764.63
2023-01-18T07:23:16.537Z,99776.63
2023-01-18T07:26:10.328Z,99799.75
2023-01-18T07:28:56.509Z,99802.28
2023-01-18T07:31:42.215Z,99803.22
2023-01-18T07:34:27.596Z,99811.09
2023-01-18T07:37:12.894Z,99806.94
2023-01-18T07:39:58.253Z,99813.91
2023-01-18T07:42:43.828Z,99820.94
2023-01-18T07:45:30.170Z,99814.13
2023-01-18T07:48:15.838Z,99810.84
2023-01-18T07:51:06.690Z,99822.72
2023-01-18T07:53:55.381Z,99812.53
2023-01-18T07:56:41.004Z,99811.81
2023-01-18T07:59:27.908Z,99812.75
2023-01-18T08:02:14.589Z,99817.91
2023-01-18T08:05:00.121Z,99816.28
2023-01-18T08:07:45.431Z,99813.81
2023-01-18T08:10:30.787Z,99814.69
2023-01-18T08:13:16.062Z,99818.13
2023-01-18T08:16:03.906Z,99826.69
2023-01-18T08:18:50.309Z,99828.47
2023-01-18T08:21:35.937Z,99832.69
2023-01-18T08:24:21.355Z,99843.06
2023-01-18T08:27:06.728Z,99845.44
2023-01-18T08:29:52.227Z,99844.69
2023-01-18T08:32:37.500Z,99846.28
2023-01-18T08:35:27.803Z,99843.84
2023-01-18T08:38:16.126Z,99845.81
2023-01-18T08:41:03.182Z,99851.84
2023-01-18T08:43:51.139Z,99854.56
2023-01-18T08:46:37.113Z,99862.41
2023-01-18T08:49:22.880Z,99858.38
2023-01-18T08:52:11.019Z,99861.09
2023-01-18T08:54:56.724Z,99860.44
2023-01-18T08:57:42.301Z,99863.16
2023-01-18T09:00:28.711Z,99869.25
2023-01-18T09:03:14.050Z,99869.38
2023-01-18T09:06:05.175Z,99873.72
2023-01-18T09:08:51.201Z,99865.28
2023-01-18T09:11:36.714Z,99868.78
2023-01-18T09:14:22.118Z,99875.00
2023-01-18T09:17:07.576Z,99886.47
2023-01-18T09:19:54.530Z,99881.53
2023-01-18T09:22:40.062Z,99884.31
2023-01-18T09:25:25.674Z,99889.63
2023-01-18T09:28:12.175Z,99889.72
2023-01-18T09:31:05.021Z,99900.09
2023-01-18T09:33:53.827Z,99897.63
2023-01-18T09:36:40.519Z,99905.31
2023-01-18T09:39:26.231Z,99905.19
2023-01-18T09:42:36.396Z,99923.91
2023-01-18T09:45:32.533Z,99921.97
2023-01-18T09:48:29.388Z,99920.06
2023-01-18T09:51:46.030Z,99940.38
2023-01-18T09:54:46.941Z,99942.69
2023-01-18T09:57:46.701Z,99934.84
2023-01-18T10:00:36.853Z,99943.28
2023-01-18T10:03:48.468Z,99945.81
2023-01-18T10:06:59.147Z,99953.72
2023-01-18T10:09:56.662Z,99945.28
2023-01-18T10:12:42.221Z,99951.47
2023-01-18T10:15:34.474Z,99945.59
2023-01-18T10:18:20.085Z,99940.56
2023-01-18T10:21:07.574Z,99956.13
2023-01-18T10:24:12.381Z,99963.22
2023-01-18T10:27:20.770Z,99963.44
2023-01-18T10:30:25.875Z,99966.19
2023-01-18T10:33:18.614Z,99974.06
2023-01-18T10:36:16.132Z,99973.19
2023-01-18T10:39:05.871Z,99977.56
2023-01-18T10:41:51.442Z,99976.91
2023-01-18T10:44:37.100Z,99989.16
2023-01-18T10:47:23.424Z,99996.19
2023-01-18T10:50:19.963Z,99996.34
2023-01-18T10:53:24.072Z,100000.84
2023-01-18T10:56:24.326Z,100001.88
2023-01-18T10:59:25.256Z,100002.13
2023-01-18T11:02:26.233Z,99999.09
2023-01-18T11:05:32.873Z,99987.31
2023-01-18T11:08:33.556Z,99996.75
2023-01-18T11:11:50.040Z,99997.59
2023-01-18T11:14:35.672Z,100002.81
2023-01-18T11:17:21.143Z,100000.19
2023-01-18T11:20:14.957Z,99988.94
2023-01-18T11:23:01.914Z,99990.69
2023-01-18T11:26:01.780Z,100004.53
2023-01-18T11:29:02.408Z,100018.31
2023-01-18T11:31:50.372Z,99996.88
2023-01-18T11:34:39.421Z,100006.56
2023-01-18T11:37:35.520Z,100003.16
2023-01-18T11:40:21.769Z,100003.09
2023-01-18T11:43:22.995Z,100006.50
2023-01-18T11:46:31.746Z,100013.31
2023-01-18T11:49:39.340Z,100016.63
2023-01-18T11:52:51.361Z,100036.47
2023-01-18T11:55:47.629Z,100040.69
2023-01-18T11:58:35.658Z,100037.22
2023-01-18T12:01:31.829Z,100043.13
2023-01-18T12:04:38.685Z,100049.97
2023-01-18T12:07:48.814Z,100058.59
2023-01-18T12:10:43.644Z,100053.41
2023-01-18T12:13:36.272Z,100072.25
2023-01-18T12:16:57.509Z,100068.00
2023-01-18T12:20:24.417Z,100082.44
2023-01-18T12:23:25.184Z,100081.44
2023-01-18T12:26:25.670Z,100078.00
2023-01-18T12:29:39.024Z,100093.63
2023-01-18T12:33:02.289Z,100088.50
2023-01-18T12:36:23.597Z,100088.59
2023-01-18T12:39:29.156Z,100096.13
2023-01-18T12:42:36.535Z,100096.13
2023-01-18T12:45:42.142Z,100100.44
2023-01-18T12:48:36.302Z,100098.75
2023-01-18T12:51:25.732Z,100104.81
2023-01-18T12:54:30.713Z,100093.72
2023-01-18T12:57:18.502Z,100083.38
2023-01-18T13:00:16.348Z,100085.13
2023-01-18T13:03:08.551Z,100086.97
2023-01-18T13:05:58.061Z,100083.63
2023-01-18T13:08:52.971Z,100075.94
2023-01-18T13:11:43.308Z,100080.38
2023-01-18T13:14:38.608Z,100074.56
2023-01-18T13:17:37.909Z,100075.44
2023-01-18T13:20:34.509Z,100080.63
2023-01-18T13:23:23.279Z,100090.22
2023-01-18T13:26:29.541Z,100088.53
2023-01-18T13:29:30.435Z,100087.78
2023-01-18T13:32:35.534Z,100090.56
2023-01-18T13:35:33.275Z,100084.59
2023-01-18T13:38:36.327Z,100088.03
2023-01-18T13:41:29.384Z,100096.63
2023-01-18T13:44:43.779Z,100091.47
2023-01-18T13:47:46.007Z,100088.03
2023-01-18T13:50:31.557Z,100093.97
2023-01-18T13:53:17.151Z,100088.75
2023-01-18T13:56:04.020Z,100092.09
2023-01-18T13:59:03.220Z,100092.00
2023-01-18T14:01:50.778Z,100089.38
2023-01-18T14:04:36.358Z,100098.84
2023-01-18T14:07:23.289Z,100095.53
2023-01-18T14:10:46.590Z,100106.13
2023-01-18T14:13:55.160Z,100110.03
2023-01-18T14:16:53.793Z,100108.47
2023-01-18T14:20:04.347Z,100112.19
2023-01-18T14:23:08.301Z,100129.59
2023-01-18T14:26:13.692Z,100133.78
2023-01-18T14:29:04.485Z,100125.97
2023-01-18T14:31:53.774Z,100127.53
2023-01-18T14:34:42.975Z,100137.66
2023-01-18T14:37:34.591Z,100148.06
2023-01-18T14:40:26.452Z,100145.59
2023-01-18T14:43:27.365Z,100157.75
2023-01-18T14:46:27.148Z,100160.50
2023-01-18T14:49:17.224Z,100161.47
2023-01-18T14:52:04.170Z,100159.66
2023-01-18T14:54:55.616Z,100164.69
2023-01-18T14:57:41.391Z,100172.25
2023-01-18T15:00:28.045Z,100176.41
2023-01-18T15:03:33.679Z,100197.63
2023-01-18T15:06:24.079Z,100192.28
2023-01-18T15:09:10.959Z,100196.41
2023-01-18T15:12:01.120Z,100199.78
2023-01-18T15:14:49.343Z,100214.28
2023-01-18T15:17:37.036Z,100208.19
2023-01-18T15:20:22.341Z,100212.41
2023-01-18T15:23:07.736Z,100225.22
2023-01-18T15:25:54.568Z,100242.25
2023-01-18T15:28:40.587Z,100241.41
2023-01-18T15:31:25.864Z,100248.25
2023-01-18T15:34:15.514Z,100255.16
2023-01-18T15:37:04.567Z,100263.75
2023-01-18T15:40:00.495Z,100257.84
2023-01-18T15:42:59.127Z,100251.88
2023-01-18T15:45:51.486Z,100257.09
2023-01-18T15:48:49.808Z,100270.00
2023-01-18T15:51:58.305Z,100267.47
2023-01-18T15:54:43.933Z,100272.63
2023-01-18T15:57:31.023Z,100273.47
2023-01-18T16:00:51.721Z,100288.91
2023-01-18T16:03:55.003Z,100290.50
2023-01-18T16:06:40.803Z,100299.88
2023-01-18T16:09:27.154Z,100308.41
2023-01-18T16:12:33.564Z,100318.66
2023-01-18T16:15:37.731Z,100309.16
2023-01-18T16:18:23.083Z,100312.53
2023-01-18T16:21:14.622Z,100323.66
2023-01-18T16:24:00.312Z,100327.88
2023-01-18T16:26:46.485Z,100325.19
2023-01-18T16:29:40.245Z,100324.22
2023-01-18T16:32:27.846Z,100336.09
2023-01-18T16:35:16.561Z,100340.19
2023-01-18T16:38:02.197Z,100354.63
2023-01-18T16:40:49.909Z,100355.31
2023-01-18T16:43:36.944Z,100362.88
2023-01-18T16:46:23.085Z,100362.69
2023-01-18T16:49:13.092Z,100378.78
2023-01-18T16:51:58.851Z,100374.34
2023-01-18T16:54:45.881Z,100373.41
2023-01-18T16:57:32.902Z,100382.75
2023-01-18T17:00:21.507Z,100390.34
2023-01-18T17:03:07.198Z,100409.09
2023-01-18T17:05:53.944Z,100415.88
2023-01-18T17:08:39.611Z,100414.06
2023-01-18T17:11:24.923Z,100426.75
2023-01-18T17:14:10.242Z,100430.94
2023-01-18T17:16:55.887Z,100434.28
2023-01-18T17:19:41.528Z,100441.09
2023-01-18T17:22:27.254Z,100447.91
2023-01-18T17:25:13.145Z,100453.75
2023-01-18T17:27:58.829Z,100456.28
2023-01-18T17:30:46.808Z,100465.59
2023-01-18T17:33:32.800Z,100463.75
2023-01-18T17:36:18.153Z,100478.16
2023-01-18T17:39:03.509Z,100483.19
2023-01-18T17:41:48.991Z,100477.13
2023-01-18T17:44:37.417Z,100486.31
2023-01-18T17:47:23.143Z,100475.84
2023-01-18T17:50:14.403Z,100485.09
2023-01-18T17:52:59.904Z,100492.66
2023-01-18T17:55:45.732Z,100499.47
2023-01-18T17:58:30.907Z,100502.84
2023-01-18T18:01:17.655Z,100508.69
2023-01-18T18:04:03.250Z,100513.72
2023-01-18T18:06:54.274Z,100517.84
2023-01-18T18:09:40.865Z,100522.78
2023-01-18T18:12:32.584Z,100522.53
2023-01-18T18:15:22.338Z,100526.50
2023-01-18T18:18:21.909Z,100523.78
2023-01-18T18:21:08.335Z,100521.84
2023-01-18T18:23:54.235Z,100519.22
2023-01-18T18:26:40.122Z,100525.06
2023-01-18T18:29:25.644Z,100525.88
2023-01-18T18:32:11.937Z,100538.53
2023-01-18T18:34:57.547Z,100544.53
2023-01-18T18:37:43.195Z,100536.88
2023-01-18T18:40:28.655Z,100551.38
2023-01-18T18:43:14.034Z,100547.16
2023-01-18T18:45:59.397Z,100544.63
2023-01-18T18:48:44.709Z,100553.25
2023-01-18T18:51:30.204Z,100555.75
2023-01-18T18:54:16.059Z,100552.28
2023-01-18T18:57:03.435Z,100548.81
2023-01-18T18:59:49.081Z,100562.44
2023-01-18T19:02:35.415Z,100566.72
2023-01-18T19:05:20.702Z,100565.78
2023-01-18T19:08:06.360Z,100563.94
2023-01-18T19:10:52.220Z,100569.00
2023-01-18T19:13:37.974Z,100577.47
2023-01-18T19:16:23.157Z,100572.16
2023-01-18T19:19:08.735Z,100578.88
2023-01-18T19:21:54.384Z,100573.69
2023-01-18T19:24:39.641Z,100583.91
2023-01-18T19:27:25.074Z,100582.13
2023-01-18T19:30:18.809Z,100586.41
2023-01-18T19:33:04.839Z,100577.00
2023-01-18T19:35:50.717Z,100578.66
2023-01-18T19:38:45.785Z,100582.03
2023-01-18T19:41:32.703Z,100583.72
2023-01-18T19:44:18.274Z,100591.47
2023-01-18T19:47:03.662Z,100600.09
2023-01-18T19:49:49.182Z,100600.97
2023-01-18T19:52:34.628Z,100595.91
2023-01-18T19:55:21.772Z,100596.78
2023-01-18T19:58:07.438Z,100600.22
2023-01-18T20:00:52.846Z,100592.41
2023-01-18T20:03:38.742Z,100594.97
2023-01-18T20:06:24.615Z,100592.25
2023-01-18T20:09:19.620Z,100600.56
2023-01-18T20:12:05.851Z,100609.78
2023-01-18T20:14:51.261Z,100613.97
2023-01-18T20:17:37.842Z,100612.06
2023-01-18T20:20:31.937Z,100604.13
2023-01-18T20:23:18.195Z,100603.00
2023-01-18T20:26:05.521Z,100611.25
2023-01-18T20:28:55.994Z,100599.97
2023-01-18T20:31:46.592Z,100599.66
2023-01-18T20:34:36.616Z,100608.09
2023-01-18T20:37:22.248Z,100603.84
2023-01-18T20:40:08.656Z,100609.59
2023-01-18T20:42:54.305Z,100608.47
2023-01-18T20:45:40.869Z,100611.72
2023-01-18T20:48:27.098Z,100605.59
2023-01-18T20:51:13.149Z,100608.91
2023-01-18T20:53:58.585Z,100613.16
2023-01-18T20:56:44.119Z,100613.00
2023-01-18T20:59:29.338Z,100612.94
2023-01-18T21:02:14.787Z,100612.84
2023-01-18T21:05:00.756Z,100607.53
2023-01-18T21:07:46.531Z,100614.03
2023-01-18T21:10:38.753Z,100611.47
2023-01-18T21:13:24.853Z,100608.81
2023-01-18T21:16:10.340Z,100603.56
2023-01-18T21:18:59.030Z,100613.63
2023-01-18T21:21:44.740Z,100605.22
2023-01-18T21:24:30.268Z,100606.81
2023-01-18T21:27:17.007Z,100609.47
2023-01-18T21:30:02.597Z,100605.09
2023-01-18T21:32:48.293Z,100606.75
2023-01-18T21:35:34.011Z,100599.84
2023-01-18T21:38:20.244Z,100604.91
2023-01-18T21:41:24.635Z,100606.44
2023-01-18T21:44:31.937Z,100608.13
2023-01-18T21:47:17.801Z,100608.94
2023-01-18T21:50:21.878Z,100610.50
2023-01-18T21:53:35.181Z,100610.22
2023-01-18T21:56:21.519Z,100616.25
2023-01-18T21:59:07.040Z,100619.84
2023-01-18T22:01:52.813Z,100621.63
2023-01-18T22:04:56.810Z,100615.63
2023-01-18T22:07:42.863Z,100618.63
2023-01-18T22:10:28.486Z,100625.75
2023-01-18T22:13:13.862Z,100625.16
2023-01-18T22:16:04.254Z,100626.19
2023-01-18T22:18:50.276Z,100621.91
2023-01-18T22:21:35.822Z,100613.94
2023-01-18T22:24:21.083Z,100616.25
2023-01-18T22:27:07.842Z,100614.44
2023-01-18T22:29:53.480Z,100613.50
2023-01-18T22:32:38.679Z,100603.88
2023-01-18T22:35:24.048Z,100609.75
2023-01-18T22:38:11.203Z,100607.00
2023-01-18T22:41:11.786Z,100603.44
2023-01-18T22:43:57.446Z,100600.81
2023-01-18T22:46:43.575Z,100605.78
2023-01-18T22:49:29.331Z,100605.66
2023-01-18T22:52:15.204Z,100601.25
2023-01-18T22:55:00.917Z,100602.09
2023-01-18T22:57:46.335Z,100607.94
2023-01-18T23:00:32.162Z,100606.19
2023-01-18T23:03:18.246Z,100609.72
2023-01-18T23:06:03.968Z,100609.66
2023-01-18T23:08:49.717Z,100613.94
2023-01-18T23:11:35.733Z,100610.84
2023-01-18T23:14:40.959Z,100605.84
2023-01-18T23:17:38.659Z,100610.16
2023-01-18T23:20:23.809Z,100605.94
2023-01-18T23:23:09.125Z,100598.94
2023-01-18T23:25:58.848Z,100602.41
2023-01-18T23:28:45.096Z,100601.69
2023-01-18T23:31:30.539Z,100599.19
2023-01-18T23:34:16.417Z,100602.59
2023-01-18T23:37:01.538Z,100599.13
2023-01-18T23:40:05.525Z,100608.50
2023-01-18T23:43:12.097Z,100603.38
2023-01-18T23:46:16.237Z,100593.03
2023-01-18T23:49:20.308Z,100602.34
2023-01-18T23:52:24.261Z,100606.47
2023-01-18T23:55:10.243Z,100601.44
2023-01-18T23:57:55.918Z,100604.09
